sensor_id;sensor_type;location;lat;lon;timestamp;pressure;altitude;pressure_sealevel;temperature;humidity
71938;BME280;59810;48.800;9.086;2023-03-03T00:01:17;97828.22;;;0.43;86.55
71938;BME280;59810;48.800;9.086;2023-03-03T00:03:43;97827.38;;;0.43;86.25
71938;BME280;59810;48.800;9.086;2023-03-03T00:06:11;97832.22;;;0.39;86.29
71938;BME280;59810;48.800;9.086;2023-03-03T00:08:40;97839.25;;;0.32;86.80
71938;BME280;59810;48.800;9.086;2023-03-03T00:11:06;97838.41;;;0.31;86.91
71938;BME280;59810;48.800;9.086;2023-03-03T00:13:40;97835.44;;;0.35;86.93
71938;BME280;59810;48.800;9.086;2023-03-03T00:18:37;97837.19;;;0.42;87.22
71938;BME280;59810;48.800;9.086;2023-03-03T00:21:28;97841.31;;;0.45;87.55
71938;BME280;59810;48.800;9.086;2023-03-03T00:24:04;97835.63;;;0.48;87.23
71938;BME280;59810;48.800;9.086;2023-03-03T00:26:37;97837.75;;;0.52;87.43
71938;BME280;59810;48.800;9.086;2023-03-03T00:29:35;97839.84;;;0.57;86.98
71938;BME280;59810;48.800;9.086;2023-03-03T00:35:26;97838.94;;;0.50;87.09
71938;BME280;59810;48.800;9.086;2023-03-03T00:38:00;97841.13;;;0.46;87.08
71938;BME280;59810;48.800;9.086;2023-03-03T00:40:32;97832.34;;;0.46;86.81
71938;BME280;59810;48.800;9.086;2023-03-03T00:42:59;97831.69;;;0.44;86.78
71938;BME280;59810;48.800;9.086;2023-03-03T00:45:51;97837.63;;;0.46;87.07
71938;BME280;59810;48.800;9.086;2023-03-03T00:48:30;97836.00;;;0.45;87.26
71938;BME280;59810;48.800;9.086;2023-03-03T00:51:19;97829.56;;;0.39;87.41
71938;BME280;59810;48.800;9.086;2023-03-03T00:53:52;97826.09;;;0.39;87.73
71938;BME280;59810;48.800;9.086;2023-03-03T00:56:18;97832.22;;;0.39;87.38
71938;BME280;59810;48.800;9.086;2023-03-03T00:58:43;97827.38;;;0.43;87.43
71938;BME280;59810;48.800;9.086;2023-03-03T01:01:13;97823.53;;;0.45;87.58
71938;BME280;59810;48.800;9.086;2023-03-03T01:03:39;97816.22;;;0.47;87.41
71938;BME280;59810;48.800;9.086;2023-03-03T01:06:04;97823.63;;;0.52;87.16
71938;BME280;59810;48.800;9.086;2023-03-03T01:08:30;97817.13;;;0.54;87.00
71938;BME280;59810;48.800;9.086;2023-03-03T01:10:58;97816.94;;;0.56;86.77
71938;BME280;59810;48.800;9.086;2023-03-03T01:13:30;97820.06;;;0.59;87.10
71938;BME280;59810;48.800;9.086;2023-03-03T01:15:59;97816.03;;;0.63;87.14
71938;BME280;59810;48.800;9.086;2023-03-03T01:18:25;97815.88;;;0.65;86.80
71938;BME280;59810;48.800;9.086;2023-03-03T01:20:51;97815.88;;;0.65;86.31
71938;BME280;59810;48.800;9.086;2023-03-03T01:23:16;97818.59;;;0.57;86.08
71938;BME280;59810;48.800;9.086;2023-03-03T01:25:42;97816.59;;;0.59;86.31
71938;BME280;59810;48.800;9.086;2023-03-03T01:28:09;97819.59;;;0.56;86.11
71938;BME280;59810;48.800;9.086;2023-03-03T01:30:35;97827.03;;;0.46;86.01
71938;BME280;59810;48.800;9.086;2023-03-03T01:33:00;97828.66;;;0.47;86.32
71938;BME280;59810;48.800;9.086;2023-03-03T01:35:26;97827.19;;;0.44;86.33
71938;BME280;59810;48.800;9.086;2023-03-03T01:37:51;97831.22;;;0.40;86.91
71938;BME280;59810;48.800;9.086;2023-03-03T01:40:20;97829.75;;;0.38;86.74
71938;BME280;59810;48.800;9.086;2023-03-03T01:42:46;97830.59;;;0.38;86.92
71938;BME280;59810;48.800;9.086;2023-03-03T01:47:42;97827.66;;;0.33;86.80
71938;BME280;59810;48.800;9.086;2023-03-03T01:50:12;97827.16;;;0.29;87.32
71938;BME280;59810;48.800;9.086;2023-03-03T01:52:41;97823.03;;;0.27;87.21
71938;BME280;59810;48.800;9.086;2023-03-03T01:55:17;97818.72;;;0.26;87.11
71938;BME280;59810;48.800;9.086;2023-03-03T01:57:49;97814.97;;;0.20;86.91
71938;BME280;59810;48.800;9.086;2023-03-03T02:00:17;97821.66;;;0.16;87.49
71938;BME280;59810;48.800;9.086;2023-03-03T02:02:44;97808.09;;;0.11;87.85
71938;BME280;59810;48.800;9.086;2023-03-03T02:05:10;97810.09;;;0.09;87.41
71938;BME280;59810;48.800;9.086;2023-03-03T02:07:36;97812.75;;;0.09;88.03
71938;BME280;59810;48.800;9.086;2023-03-03T02:12:36;97802.91;;;-0.05;88.36
71938;BME280;59810;48.800;9.086;2023-03-03T02:15:22;97795.94;;;-0.06;88.74
71938;BME280;59810;48.800;9.086;2023-03-03T02:17:50;97793.28;;;-0.06;88.28
71938;BME280;59810;48.800;9.086;2023-03-03T02:20:19;97794.66;;;-0.10;88.16
71938;BME280;59810;48.800;9.086;2023-03-03T02:23:03;97798.31;;;-0.11;88.29
71938;BME280;59810;48.800;9.086;2023-03-03T02:28:23;97789.72;;;-0.13;88.48
71938;BME280;59810;48.800;9.086;2023-03-03T02:30:55;97788.06;;;-0.14;88.30
71938;BME280;59810;48.800;9.086;2023-03-03T02:33:21;97792.38;;;-0.13;88.38
71938;BME280;59810;48.800;9.086;2023-03-03T02:35:47;97792.19;;;-0.12;89.17
71938;BME280;59810;48.800;9.086;2023-03-03T02:43:29;97798.69;;;-0.14;88.25
71938;BME280;59810;48.800;9.086;2023-03-03T02:45:55;97804.53;;;-0.19;88.29
71938;BME280;59810;48.800;9.086;2023-03-03T02:48:21;97803.41;;;-0.24;87.73
71938;BME280;59810;48.800;9.086;2023-03-03T02:50:46;97805.78;;;-0.29;87.74
71938;BME280;59810;48.800;9.086;2023-03-03T02:53:11;97808.94;;;-0.34;87.86
71938;BME280;59810;48.800;9.086;2023-03-03T02:55:37;97808.94;;;-0.34;87.68
71938;BME280;59810;48.800;9.086;2023-03-03T02:58:02;97817.38;;;-0.30;87.29
71938;BME280;59810;48.800;9.086;2023-03-03T03:00:28;97814.00;;;-0.24;87.49
71938;BME280;59810;48.800;9.086;2023-03-03T03:02:53;97805.53;;;-0.20;87.40
71938;BME280;59810;48.800;9.086;2023-03-03T03:05:18;97808.28;;;-0.13;87.18
71938;BME280;59810;48.800;9.086;2023-03-03T03:07:43;97808.94;;;-0.11;87.37
71938;BME280;59810;48.800;9.086;2023-03-03T03:10:09;97811.41;;;-0.10;87.33
71938;BME280;59810;48.800;9.086;2023-03-03T03:12:35;97809.22;;;-0.06;87.54
71938;BME280;59810;48.800;9.086;2023-03-03T03:15:00;97817.19;;;-0.06;88.64
71938;BME280;59810;48.800;9.086;2023-03-03T03:17:26;97817.47;;;-0.01;88.41
71938;BME280;59810;48.800;9.086;2023-03-03T03:19:51;97813.47;;;0.03;88.20
71938;BME280;59810;48.800;9.086;2023-03-03T03:22:16;97803.16;;;0.08;88.38
71938;BME280;59810;48.800;9.086;2023-03-03T03:24:43;97809.38;;;0.15;88.64
71938;BME280;59810;48.800;9.086;2023-03-03T03:27:09;97810.94;;;0.24;88.65
71938;BME280;59810;48.800;9.086;2023-03-03T03:29:36;97813.88;;;0.29;88.97
71938;BME280;59810;48.800;9.086;2023-03-03T03:32:04;97810.16;;;0.39;89.26
71938;BME280;59810;48.800;9.086;2023-03-03T03:34:29;97806.69;;;0.53;89.19
71938;BME280;59810;48.800;9.086;2023-03-03T03:36:55;97804.50;;;0.56;88.29
71938;BME280;59810;48.800;9.086;2023-03-03T03:39:20;97804.50;;;0.71;87.67
71938;BME280;59810;48.800;9.086;2023-03-03T03:41:46;97807.16;;;0.86;87.42
71938;BME280;59810;48.800;9.086;2023-03-03T03:44:11;97811.28;;;0.88;85.37
71938;BME280;59810;48.800;9.086;2023-03-03T03:46:36;97814.66;;;0.97;85.43
71938;BME280;59810;48.800;9.086;2023-03-03T03:49:02;97819.50;;;0.93;84.18
71938;BME280;59810;48.800;9.086;2023-03-03T03:51:27;97818.06;;;0.91;84.53
71938;BME280;59810;48.800;9.086;2023-03-03T03:53:52;97819.63;;;0.85;84.84
71938;BME280;59810;48.800;9.086;2023-03-03T03:56:18;97812.91;;;0.89;85.03
71938;BME280;59810;48.800;9.086;2023-03-03T03:58:43;97815.84;;;0.94;85.31
71938;BME280;59810;48.800;9.086;2023-03-03T04:01:08;97808.63;;;1.03;85.43
71938;BME280;59810;48.800;9.086;2023-03-03T04:03:34;97801.72;;;1.09;85.26
71938;BME280;59810;48.800;9.086;2023-03-03T04:05:59;97812.91;;;1.19;84.94
71938;BME280;59810;48.800;9.086;2023-03-03T04:10:55;97818.28;;;1.25;84.06
71938;BME280;59810;48.800;9.086;2023-03-03T04:13:20;97810.13;;;1.27;84.17
71938;BME280;59810;48.800;9.086;2023-03-03T04:15:47;97811.44;;;1.31;84.14
71938;BME280;59810;48.800;9.086;2023-03-03T04:18:12;97810.03;;;1.35;84.01
71938;BME280;59810;48.800;9.086;2023-03-03T04:20:39;97808.28;;;1.42;83.32
71938;BME280;59810;48.800;9.086;2023-03-03T04:23:04;97809.53;;;1.46;83.05
71938;BME280;59810;48.800;9.086;2023-03-03T04:25:29;97818.16;;;1.48;83.50
71938;BME280;59810;48.800;9.086;2023-03-03T04:27:57;97817.78;;;1.51;82.96
71938;BME280;59810;48.800;9.086;2023-03-03T04:30:22;97819.44;;;1.52;82.44
71938;BME280;59810;48.800;9.086;2023-03-03T04:32:47;97820.25;;;1.53;82.64
71938;BME280;59810;48.800;9.086;2023-03-03T04:35:13;97824.38;;;1.55;82.58
71938;BME280;59810;48.800;9.086;2023-03-03T04:37:39;97819.50;;;1.59;82.49
71938;BME280;59810;48.800;9.086;2023-03-03T04:40:06;97816.28;;;1.64;82.10
71938;BME280;59810;48.800;9.086;2023-03-03T04:42:31;97816.94;;;1.66;81.85
71938;BME280;59810;48.800;9.086;2023-03-03T04:44:57;97824.53;;;1.69;82.34
71938;BME280;59810;48.800;9.086;2023-03-03T04:47:22;97824.72;;;1.67;81.37
71938;BME280;59810;48.800;9.086;2023-03-03T04:49:48;97825.16;;;1.71;81.47
71938;BME280;59810;48.800;9.086;2023-03-03T04:52:13;97834.16;;;1.70;81.54
71938;BME280;59810;48.800;9.086;2023-03-03T04:54:38;97837.19;;;1.67;80.99
71938;BME280;59810;48.800;9.086;2023-03-03T04:57:06;97847.22;;;1.65;81.26
71938;BME280;59810;48.800;9.086;2023-03-03T04:59:33;97843.06;;;1.62;81.19
71938;BME280;59810;48.800;9.086;2023-03-03T05:01:59;97842.72;;;1.65;81.59
71938;BME280;59810;48.800;9.086;2023-03-03T05:04:24;97840.88;;;1.66;81.29
71938;BME280;59810;48.800;9.086;2023-03-03T05:06:50;97841.88;;;1.65;81.74
71938;BME280;59810;48.800;9.086;2023-03-03T05:09:15;97844.75;;;1.63;81.44
71938;BME280;59810;48.800;9.086;2023-03-03T05:11:43;97842.91;;;1.64;82.07
71938;BME280;59810;48.800;9.086;2023-03-03T05:14:08;97850.88;;;1.64;81.68
71938;BME280;59810;48.800;9.086;2023-03-03T05:16:33;97841.25;;;1.63;81.52
71938;BME280;59810;48.800;9.086;2023-03-03T05:18:59;97842.72;;;1.65;81.34
71938;BME280;59810;48.800;9.086;2023-03-03T05:21:26;97845.00;;;1.68;81.63
71938;BME280;59810;48.800;9.086;2023-03-03T05:23:52;97840.88;;;1.66;81.37
71938;BME280;59810;48.800;9.086;2023-03-03T05:26:17;97844.81;;;1.70;81.43
71938;BME280;59810;48.800;9.086;2023-03-03T05:28:42;97836.44;;;1.73;81.43
71938;BME280;59810;48.800;9.086;2023-03-03T05:31:08;97845.88;;;1.75;81.76
71938;BME280;59810;48.800;9.086;2023-03-03T05:33:33;97843.03;;;1.77;81.43
71938;BME280;59810;48.800;9.086;2023-03-03T05:35:59;97847.97;;;1.80;81.01
71938;BME280;59810;48.800;9.086;2023-03-03T05:38:26;97846.31;;;1.79;81.24
71938;BME280;59810;48.800;9.086;2023-03-03T05:40:54;97847.97;;;1.80;81.26
71938;BME280;59810;48.800;9.086;2023-03-03T05:43:19;97857.59;;;1.81;80.74
71938;BME280;59810;48.800;9.086;2023-03-03T05:45:44;97863.50;;;1.76;82.01
71938;BME280;59810;48.800;9.086;2023-03-03T05:48:10;97865.91;;;1.71;80.97
71938;BME280;59810;48.800;9.086;2023-03-03T05:50:37;97868.19;;;1.74;81.51
71938;BME280;59810;48.800;9.086;2023-03-03T05:53:03;97870.03;;;1.74;82.20
71938;BME280;59810;48.800;9.086;2023-03-03T05:55:30;97870.03;;;1.74;80.94
71938;BME280;59810;48.800;9.086;2023-03-03T05:57:56;97874.34;;;1.75;80.97
71938;BME280;59810;48.800;9.086;2023-03-03T06:00:21;97874.06;;;1.70;80.75
71938;BME280;59810;48.800;9.086;2023-03-03T06:02:49;97874.47;;;1.67;81.12
71938;BME280;59810;48.800;9.086;2023-03-03T06:05:14;97872.81;;;1.66;80.83
71938;BME280;59810;48.800;9.086;2023-03-03T06:07:40;97877.94;;;1.67;81.77
71938;BME280;59810;48.800;9.086;2023-03-03T06:10:06;97873.63;;;1.66;81.32
71938;BME280;59810;48.800;9.086;2023-03-03T06:12:34;97880.69;;;1.59;80.83
71938;BME280;59810;48.800;9.086;2023-03-03T06:14:59;97887.47;;;1.62;81.14
71938;BME280;59810;48.800;9.086;2023-03-03T06:17:27;97882.53;;;1.59;81.07
71938;BME280;59810;48.800;9.086;2023-03-03T06:19:52;97883.34;;;1.59;80.93
71938;BME280;59810;48.800;9.086;2023-03-03T06:22:17;97887.03;;;1.58;80.82
71938;BME280;59810;48.800;9.086;2023-03-03T06:24:43;97896.47;;;1.61;81.17
71938;BME280;59810;48.800;9.086;2023-03-03T06:27:09;97889.50;;;1.60;80.79
71938;BME280;59810;48.800;9.086;2023-03-03T06:29:39;97894.81;;;1.60;81.04
71938;BME280;59810;48.800;9.086;2023-03-03T06:32:06;97901.16;;;1.59;81.16
71938;BME280;59810;48.800;9.086;2023-03-03T06:34:32;97904.19;;;1.55;81.37
71938;BME280;59810;48.800;9.086;2023-03-03T06:36:57;97904.19;;;1.55;81.14
71938;BME280;59810;48.800;9.086;2023-03-03T06:39:22;97911.59;;;1.60;81.20
71938;BME280;59810;48.800;9.086;2023-03-03T06:41:48;97907.94;;;1.61;81.26
71938;BME280;59810;48.800;9.086;2023-03-03T06:44:15;97908.88;;;1.68;81.23
71938;BME280;59810;48.800;9.086;2023-03-03T06:46:41;97916.03;;;1.68;81.08
71938;BME280;59810;48.800;9.086;2023-03-03T06:49:06;97913.19;;;1.69;81.51
71938;BME280;59810;48.800;9.086;2023-03-03T06:51:37;97913.44;;;1.74;81.15
71938;BME280;59810;48.800;9.086;2023-03-03T06:54:15;97914.91;;;1.77;81.28
71938;BME280;59810;48.800;9.086;2023-03-03T06:56:42;97923.69;;;1.77;79.19
71938;BME280;59810;48.800;9.086;2023-03-03T06:59:18;97921.13;;;1.84;79.31
71938;BME280;59810;48.800;9.086;2023-03-03T07:01:46;97920.53;;;1.88;79.07
71938;BME280;59810;48.800;9.086;2023-03-03T07:04:32;97924.28;;;1.94;78.68
71938;BME280;59810;48.800;9.086;2023-03-03T07:07:15;97924.97;;;1.96;76.27
71938;BME280;59810;48.800;9.086;2023-03-03T07:09:47;97920.72;;;2.02;76.20
71938;BME280;59810;48.800;9.086;2023-03-03T07:12:15;97928.69;;;2.02;76.22
71938;BME280;59810;48.800;9.086;2023-03-03T07:14:44;97929.91;;;1.99;76.63
71938;BME280;59810;48.800;9.086;2023-03-03T07:17:15;97934.22;;;2.00;77.01
71938;BME280;59810;48.800;9.086;2023-03-03T07:19:44;97935.03;;;2.01;77.37
71938;BME280;59810;48.800;9.086;2023-03-03T07:22:18;97937.50;;;2.02;77.30
71938;BME280;59810;48.800;9.086;2023-03-03T07:24:46;97934.66;;;2.04;77.61
71938;BME280;59810;48.800;9.086;2023-03-03T07:27:27;97941.81;;;2.03;76.62
71938;BME280;59810;48.800;9.086;2023-03-03T07:29:54;97934.53;;;2.12;77.31
71938;BME280;59810;48.800;9.086;2023-03-03T07:32:41;97939.28;;;2.16;76.63
71938;BME280;59810;48.800;9.086;2023-03-03T07:35:36;97940.94;;;2.17;75.86
71938;BME280;59810;48.800;9.086;2023-03-03T07:38:16;97939.53;;;2.22;74.68
71938;BME280;59810;48.800;9.086;2023-03-03T07:40:55;97943.66;;;2.24;75.32
71938;BME280;59810;48.800;9.086;2023-03-03T07:43:28;97947.44;;;2.30;73.41
71938;BME280;59810;48.800;9.086;2023-03-03T07:48:39;97942.56;;;2.33;72.73
71938;BME280;59810;48.800;9.086;2023-03-03T07:51:17;97942.38;;;2.35;72.45
71938;BME280;59810;48.800;9.086;2023-03-03T07:53:43;97943.06;;;2.43;72.28
71938;BME280;59810;48.800;9.086;2023-03-03T07:56:29;97947.41;;;2.51;72.03
71938;BME280;59810;48.800;9.086;2023-03-03T07:58:56;97953.81;;;2.57;72.08
71938;BME280;59810;48.800;9.086;2023-03-03T08:04:00;97962.47;;;2.37;69.16
71938;BME280;59810;48.800;9.086;2023-03-03T08:11:59;97972.88;;;2.54;69.56
71938;BME280;59810;48.800;9.086;2023-03-03T08:14:36;97976.34;;;2.54;68.95
71938;BME280;59810;48.800;9.086;2023-03-03T08:17:08;97979.94;;;2.61;67.29
71938;BME280;59810;48.800;9.086;2023-03-03T08:19:38;97970.53;;;2.65;66.67
71938;BME280;59810;48.800;9.086;2023-03-03T08:22:15;97977.81;;;2.57;66.05
71938;BME280;59810;48.800;9.086;2023-03-03T08:24:42;97977.25;;;2.61;66.42
71938;BME280;59810;48.800;9.086;2023-03-03T08:27:07;97972.81;;;2.68;67.03
71938;BME280;59810;48.800;9.086;2023-03-03T08:29:32;97970.34;;;2.67;67.52
71938;BME280;59810;48.800;9.086;2023-03-03T08:31:58;97966.72;;;2.74;66.54
71938;BME280;59810;48.800;9.086;2023-03-03T08:34:23;97971.91;;;2.83;66.18
71938;BME280;59810;48.800;9.086;2023-03-03T08:36:49;97965.59;;;2.90;66.06
71938;BME280;59810;48.800;9.086;2023-03-03T08:39:14;97975.63;;;2.88;65.84
71938;BME280;59810;48.800;9.086;2023-03-03T08:41:39;97967.44;;;2.90;66.16
71938;BME280;59810;48.800;9.086;2023-03-03T08:44:10;97966.53;;;2.76;67.32
71938;BME280;59810;48.800;9.086;2023-03-03T08:46:36;97962.00;;;2.76;67.80
71938;BME280;59810;48.800;9.086;2023-03-03T08:49:01;97974.13;;;2.79;66.69
71938;BME280;59810;48.800;9.086;2023-03-03T08:51:27;97971.28;;;2.80;66.24
71938;BME280;59810;48.800;9.086;2023-03-03T08:53:53;97969.38;;;2.74;66.92
71938;BME280;59810;48.800;9.086;2023-03-03T08:56:20;97979.66;;;2.77;65.40
71938;BME280;59810;48.800;9.086;2023-03-03T08:58:46;97976.41;;;2.82;65.53
71938;BME280;59810;48.800;9.086;2023-03-03T09:01:14;97976.84;;;2.86;66.14
71938;BME280;59810;48.800;9.086;2023-03-03T09:03:43;97982.69;;;2.96;66.43
71938;BME280;59810;48.800;9.086;2023-03-03T09:06:09;97981.91;;;3.02;66.39
71938;BME280;59810;48.800;9.086;2023-03-03T09:08:34;97990.59;;;3.10;65.28
71938;BME280;59810;48.800;9.086;2023-03-03T09:11:00;98000.06;;;3.13;65.16
71938;BME280;59810;48.800;9.086;2023-03-03T09:13:28;97995.53;;;3.13;65.08
71938;BME280;59810;48.800;9.086;2023-03-03T09:15:55;97993.25;;;3.10;64.98
71938;BME280;59810;48.800;9.086;2023-03-03T09:18:31;98006.56;;;3.32;68.28
71938;BME280;59810;48.800;9.086;2023-03-03T09:21:05;97999.97;;;3.28;64.97
71938;BME280;59810;48.800;9.086;2023-03-03T09:23:41;98006.19;;;3.35;64.82
71938;BME280;59810;48.800;9.086;2023-03-03T09:28:52;98006.75;;;3.58;64.68
71938;BME280;59810;48.800;9.086;2023-03-03T09:31:30;98008.19;;;3.61;64.67
71938;BME280;59810;48.800;9.086;2023-03-03T09:34:08;98015.41;;;3.67;63.94
71938;BME280;59810;48.800;9.086;2023-03-03T09:36:36;98008.25;;;3.74;63.89
71938;BME280;59810;48.800;9.086;2023-03-03T09:39:20;98009.59;;;3.91;63.97
71938;BME280;59810;48.800;9.086;2023-03-03T10:07:02;98015.94;;;4.31;63.80
71938;BME280;59810;48.800;9.086;2023-03-03T10:10:17;98013.34;;;4.58;62.79
71938;BME280;59810;48.800;9.086;2023-03-03T10:18:38;98018.53;;;5.19;61.46
71938;BME280;59810;48.800;9.086;2023-03-03T10:21:18;98018.56;;;5.32;60.53
71938;BME280;59810;48.800;9.086;2023-03-03T10:26:23;98019.16;;;5.54;59.98
71938;BME280;59810;48.800;9.086;2023-03-03T10:37:27;98014.75;;;5.99;59.79
71938;BME280;59810;48.800;9.086;2023-03-03T10:40:22;98021.91;;;6.12;58.92
71938;BME280;59810;48.800;9.086;2023-03-03T10:51:24;98017.19;;;6.59;56.79
71938;BME280;59810;48.800;9.086;2023-03-03T11:07:57;98009.22;;;6.39;58.13
71938;BME280;59810;48.800;9.086;2023-03-03T11:35:50;98028.34;;;7.18;55.24
71938;BME280;59810;48.800;9.086;2023-03-03T11:41:40;98021.00;;;7.32;55.41
71938;BME280;59810;48.800;9.086;2023-03-03T11:44:36;98012.44;;;7.42;56.21
71938;BME280;59810;48.800;9.086;2023-03-03T11:48:02;98009.66;;;7.73;53.93
71938;BME280;59810;48.800;9.086;2023-03-03T11:50:24;98009.41;;;7.82;52.82
71938;BME280;59810;48.800;9.086;2023-03-03T11:53:00;98001.44;;;7.50;54.52
71938;BME280;59810;48.800;9.086;2023-03-03T11:55:35;98002.56;;;7.79;52.68
71938;BME280;59810;48.800;9.086;2023-03-03T11:58:24;97999.75;;;7.74;52.12
71938;BME280;59810;48.800;9.086;2023-03-03T12:03:43;97994.97;;;7.76;52.38
71938;BME280;59810;48.800;9.086;2023-03-03T12:17:11;97984.16;;;7.83;51.94
71938;BME280;59810;48.800;9.086;2023-03-03T12:20:16;97983.97;;;7.77;51.42
71938;BME280;59810;48.800;9.086;2023-03-03T12:25:35;97981.00;;;8.04;50.93
71938;BME280;59810;48.800;9.086;2023-03-03T12:30:42;97972.47;;;8.43;50.70
71938;BME280;59810;48.800;9.086;2023-03-03T12:33:20;97973.94;;;8.99;48.84
71938;BME280;59810;48.800;9.086;2023-03-03T12:44:27;97968.34;;;9.13;49.47
71938;BME280;59810;48.800;9.086;2023-03-03T12:52:33;97968.94;;;9.15;47.43
71938;BME280;59810;48.800;9.086;2023-03-03T12:57:34;97971.41;;;9.28;49.01
71938;BME280;59810;48.800;9.086;2023-03-03T13:02:46;97960.41;;;9.53;46.12
71938;BME280;59810;48.800;9.086;2023-03-03T13:07:46;97962.84;;;9.31;47.44
71938;BME280;59810;48.800;9.086;2023-03-03T13:13:20;97971.44;;;9.51;45.64
71938;BME280;59810;48.800;9.086;2023-03-03T13:16:00;97969.66;;;9.33;46.16
71938;BME280;59810;48.800;9.086;2023-03-03T13:26:41;97965.31;;;9.79;44.95
71938;BME280;59810;48.800;9.086;2023-03-03T13:31:52;97961.22;;;9.77;45.08
71938;BME280;59810;48.800;9.086;2023-03-03T13:34:37;97948.19;;;9.74;46.61
71938;BME280;59810;48.800;9.086;2023-03-03T13:37:19;97956.53;;;9.60;45.74
71938;BME280;59810;48.800;9.086;2023-03-03T13:39:58;97955.13;;;9.81;45.66
71938;BME280;59810;48.800;9.086;2023-03-03T13:45:00;97940.69;;;9.87;46.87
71938;BME280;59810;48.800;9.086;2023-03-03T13:47:32;97948.50;;;10.01;45.50
71938;BME280;59810;48.800;9.086;2023-03-03T13:55:24;97938.03;;;10.16;45.00
71938;BME280;59810;48.800;9.086;2023-03-03T14:00:31;97940.63;;;9.99;45.77
71938;BME280;59810;48.800;9.086;2023-03-03T14:11:10;97923.13;;;10.25;46.26
71938;BME280;59810;48.800;9.086;2023-03-03T14:19:20;97930.66;;;10.23;44.73
71938;BME280;59810;48.800;9.086;2023-03-03T14:22:01;97930.50;;;10.29;44.81
71938;BME280;59810;48.800;9.086;2023-03-03T14:24:29;97927.63;;;9.96;46.19
71938;BME280;59810;48.800;9.086;2023-03-03T14:26:56;97926.53;;;10.20;46.29
71938;BME280;59810;48.800;9.086;2023-03-03T14:31:55;97927.53;;;10.43;44.70
71938;BME280;59810;48.800;9.086;2023-03-03T14:36:49;97926.53;;;10.20;45.51
71938;BME280;59810;48.800;9.086;2023-03-03T14:39:29;97926.34;;;9.98;45.67
71938;BME280;59810;48.800;9.086;2023-03-03T14:41:56;97929.91;;;10.27;45.55
71938;BME280;59810;48.800;9.086;2023-03-03T14:44:26;97922.22;;;10.48;45.10
71938;BME280;59810;48.800;9.086;2023-03-03T14:47:15;97918.94;;;10.46;45.26
71938;BME280;59810;48.800;9.086;2023-03-03T14:49:42;97922.22;;;10.48;45.07
71938;BME280;59810;48.800;9.086;2023-03-03T14:54:37;97912.97;;;10.44;45.27
71938;BME280;59810;48.800;9.086;2023-03-03T14:57:10;97922.56;;;10.51;45.19
71938;BME280;59810;48.800;9.086;2023-03-03T14:59:37;97922.81;;;10.38;45.91
71938;BME280;59810;48.800;9.086;2023-03-03T15:04:43;97919.84;;;10.23;47.32
71938;BME280;59810;48.800;9.086;2023-03-03T15:07:31;97915.31;;;10.40;47.00
71938;BME280;59810;48.800;9.086;2023-03-03T15:09:57;97916.69;;;10.14;46.91
71938;BME280;59810;48.800;9.086;2023-03-03T15:17:44;97906.34;;;9.83;47.14
71938;BME280;59810;48.800;9.086;2023-03-03T15:28:48;97910.50;;;9.27;49.11
71938;BME280;59810;48.800;9.086;2023-03-03T15:37:02;97901.25;;;9.11;49.67
71938;BME280;59810;48.800;9.086;2023-03-03T15:50:54;97899.94;;;8.90;50.13
71938;BME280;59810;48.800;9.086;2023-03-03T16:01:33;97899.75;;;8.50;51.00
71938;BME280;59810;48.800;9.086;2023-03-03T16:06:44;97910.44;;;8.38;52.00
71938;BME280;59810;48.800;9.086;2023-03-03T16:11:54;97910.03;;;8.23;52.15
71938;BME280;59810;48.800;9.086;2023-03-03T16:14:35;97911.22;;;8.27;51.92
71938;BME280;59810;48.800;9.086;2023-03-03T16:22:39;97913.66;;;7.99;53.16
71938;BME280;59810;48.800;9.086;2023-03-03T16:30:35;97924.22;;;7.82;53.33
71938;BME280;59810;48.800;9.086;2023-03-03T16:33:22;97916.78;;;7.77;53.86
71938;BME280;59810;48.800;9.086;2023-03-03T16:38:46;97928.31;;;7.66;54.01
71938;BME280;59810;48.800;9.086;2023-03-03T16:41:31;97931.88;;;7.60;54.10
71938;BME280;59810;48.800;9.086;2023-03-03T16:44:22;97936.50;;;7.53;54.63
71938;BME280;59810;48.800;9.086;2023-03-03T16:47:06;97942.38;;;7.43;54.81
71938;BME280;59810;48.800;9.086;2023-03-03T16:49:43;97944.09;;;7.38;54.94
71938;BME280;59810;48.800;9.086;2023-03-03T16:52:16;97950.81;;;7.29;55.65
71938;BME280;59810;48.800;9.086;2023-03-03T17:03:08;97965.59;;;6.88;57.62
71938;BME280;59810;48.800;9.086;2023-03-03T17:09:14;97964.13;;;6.61;59.38
71938;BME280;59810;48.800;9.086;2023-03-03T17:14:47;97963.06;;;6.30;60.53
71938;BME280;59810;48.800;9.086;2023-03-03T17:20:36;97970.19;;;6.05;61.14
71938;BME280;59810;48.800;9.086;2023-03-03T17:23:54;97975.63;;;5.91;61.62
71938;BME280;59810;48.800;9.086;2023-03-03T17:26:11;97979.94;;;5.79;61.84
71938;BME280;59810;48.800;9.086;2023-03-03T17:40:17;98000.44;;;5.21;63.85
71938;BME280;59810;48.800;9.086;2023-03-03T17:44:08;98003.31;;;5.13;63.95
71938;BME280;59810;48.800;9.086;2023-03-03T17:46:02;98008.03;;;5.04;64.56
71938;BME280;59810;48.800;9.086;2023-03-03T17:48:43;98008.25;;;4.96;64.98
71938;BME280;59810;48.800;9.086;2023-03-03T17:51:32;98006.78;;;4.87;65.09
71938;BME280;59810;48.800;9.086;2023-03-03T17:56:56;98020.34;;;4.79;65.96
71938;BME280;59810;48.800;9.086;2023-03-03T18:06:10;98027.97;;;4.82;65.36
71938;BME280;59810;48.800;9.086;2023-03-03T18:08:37;98032.09;;;4.84;65.42
71938;BME280;59810;48.800;9.086;2023-03-03T18:22:06;98040.16;;;4.91;65.56
71938;BME280;59810;48.800;9.086;2023-03-03T18:24:53;98046.09;;;4.86;65.87
71938;BME280;59810;48.800;9.086;2023-03-03T18:27:31;98038.47;;;4.83;65.97
71938;BME280;59810;48.800;9.086;2023-03-03T18:35:55;98051.16;;;4.55;67.49
71938;BME280;59810;48.800;9.086;2023-03-03T18:38:35;98049.69;;;4.52;67.44
71938;BME280;59810;48.800;9.086;2023-03-03T18:41:12;98056.47;;;4.48;68.22
71938;BME280;59810;48.800;9.086;2023-03-03T18:49:09;98056.66;;;4.33;68.68
71938;BME280;59810;48.800;9.086;2023-03-03T18:56:42;98065.91;;;4.37;68.78
71938;BME280;59810;48.800;9.086;2023-03-03T19:09:51;98081.94;;;4.37;68.99
71938;BME280;59810;48.800;9.086;2023-03-03T19:20:44;98080.31;;;3.95;70.80
71938;BME280;59810;48.800;9.086;2023-03-03T19:23:30;98073.06;;;3.89;70.85
71938;BME280;59810;48.800;9.086;2023-03-03T19:31:50;98089.38;;;4.01;70.59
71938;BME280;59810;48.800;9.086;2023-03-03T19:34:32;98086.69;;;4.01;70.57
71938;BME280;59810;48.800;9.086;2023-03-03T19:42:22;98085.88;;;4.00;70.72